Kalamita — EMSV — position and weather

sailwx.info

Track history (hours):
 
Tides and Currents Weather Stations Pressure Air Temp Water Temp Dewpoint Dewpoint Depression Visibility Wind Speed Wind Dir Waves Ship Positions

Kalamita

Last reported at 2015-Mar-05 13:30 UTC. Time now 2015-Mar-05 14:34 UTC.
Position N 44°37' E 033°35'.

Length 55 m; draft 4 m.

Type: Fishing. MMSI: 272440000.

Date/timePositionNaut miles runAvg speedWind from/ knotsBaromVisibWave heightAir tempDewpointWater temp
2015-Mar-05 13:30N 44°37' E 033°35'0 0.0
2015-Mar-05 12:33N 44°37' E 033°35'0 0.0
2015-Mar-05 11:14N 44°37' E 033°35'0 0.0
2015-Mar-05 08:23N 44°37' E 033°35'0 0.0
2015-Mar-05 07:07N 44°37' E 033°35'0 0.0
2015-Mar-05 06:33N 44°37' E 033°35'0 0.0
2015-Mar-05 05:34N 44°37' E 033°35'0 0.0
2015-Mar-05 04:07N 44°37' E 033°35'0 0.0
2015-Mar-05 03:25N 44°37' E 033°35'0 0.0
2015-Mar-05 01:29N 44°37' E 033°35'0 0.0
2015-Mar-05 00:33N 44°37' E 033°35'0 0.0
2015-Mar-04 23:33N 44°37' E 033°35'0 0.0
2015-Mar-04 22:33N 44°37' E 033°35'0 0.0
2015-Mar-04 21:33N 44°37' E 033°35'0 0.0
2015-Mar-04 20:32N 44°37' E 033°35'0 0.0
2015-Mar-04 19:24N 44°37' E 033°35'0 0.0
2015-Mar-04 18:32N 44°37' E 033°35'0 0.0
2015-Mar-04 17:33N 44°37' E 033°35'0 0.0
2015-Mar-04 16:30N 44°37' E 033°35'0 0.0
2015-Mar-04 15:34N 44°37' E 033°35'3 3.2
2015-Mar-04 14:33N 44°37' E 033°30'3 2.9
2015-Mar-04 13:33N 44°40' E 033°30'0 0.0
2015-Mar-04 12:33N 44°40' E 033°30'0 0.0
2015-Mar-04 11:33N 44°40' E 033°30'0 0.0
2015-Mar-04 10:33N 44°40' E 033°30'6 5.7
2015-Mar-04 09:33N 44°37' E 033°24'36 7.1
2015-Mar-04 04:31N 44°29' E 034°13'1010.3
2015-Mar-04 03:33N 44°36' E 034°23'9 9.2
2015-Mar-04 02:33N 44°43' E 034°31'10 9.5
2015-Mar-04 01:33N 44°47' E 034°43'1010.1
2015-Mar-04 00:33N 44°48' E 034°57'109 2.6
2015-Mar-02 07:04N 44°40' E 037°30'2 3.6
2015-Mar-02 06:31N 44°39' E 037°33'1 0.9
2015-Mar-02 05:18N 44°40' E 037°33'2 0.2
2015-Mar-01 15:12N 44°39' E 037°36'2 2.9
2015-Mar-01 14:29N 44°40' E 037°33'1 0.9
2015-Mar-01 13:33N 44°40' E 037°34'3 0.4
2015-Mar-01 07:27N 44°40' E 037°31'1 1.2
2015-Mar-01 06:31N 44°39' E 037°32'1 0.0
2015-Feb-28 08:33N 44°40' E 037°31'1 0.3
2015-Feb-28 06:33N 44°39' E 037°31'1 0.5
2015-Feb-28 04:30N 44°40' E 037°30'100 7.7
2015-Feb-27 15:32N 44°47' E 035°09'7 7.7
2015-Feb-27 14:33N 44°48' E 034°59'4 3.6
2015-Feb-27 13:33N 44°47' E 034°54'2 2.4
2015-Feb-27 12:34N 44°47' E 034°51'7 6.7
2015-Feb-27 11:34N 44°45' E 034°41'1 1.3
2015-Feb-27 10:34N 44°46' E 034°40'3 3.0
2015-Feb-27 09:33N 44°45' E 034°36'3 3.3
2015-Feb-27 08:34N 44°44' E 034°32'3 3.2
2015-Feb-27 07:33N 44°42' E 034°29'3 2.8
2015-Feb-27 06:33N 44°43' E 034°32'4 3.8
2015-Feb-27 05:34N 44°45' E 034°36'3 3.2
2015-Feb-27 04:33N 44°47' E 034°40'3 3.1
2015-Feb-27 03:34N 44°48' E 034°44'0 0.0
2015-Feb-27 02:34N 44°48' E 034°44'0 0.0
2015-Feb-27 01:34N 44°48' E 034°44'0 0.0
2015-Feb-27 00:34N 44°48' E 034°44'7 6.9
2015-Feb-26 23:34N 44°43' E 034°38'1111.1
2015-Feb-26 22:34N 44°36' E 034°26'1110.9
2015-Feb-26 21:34N 44°29' E 034°14'38 9.4
2015-Feb-26 17:32N 44°35' E 033°22'1111.3
2015-Feb-26 16:33N 44°46' E 033°24'3 1.7
2015-Feb-26 14:33N 44°48' E 033°29'4 3.2
2015-Feb-26 13:13N 44°44' E 033°29'2 3.2
2015-Feb-26 12:33N 44°41' E 033°29'2 1.7
2015-Feb-26 11:33N 44°43' E 033°29'3 2.9
2015-Feb-26 10:26N 44°46' E 033°28'1 1.1
2015-Feb-26 09:25N 44°47' E 033°27'5 0.5
2015-Feb-26 00:26N 44°51' E 033°28'5 0.6
2015-Feb-25 16:10N 44°47' E 033°30'2 2.0
2015-Feb-25 15:10N 44°48' E 033°29'1 0.2
2015-Feb-25 11:20N 44°48' E 033°28'1 0.7
2015-Feb-25 10:29N 44°47' E 033°28'4 3.0
2015-Feb-25 09:14N 44°51' E 033°26'3 2.8
2015-Feb-25 08:07N 44°49' E 033°29'1 1.4
2015-Feb-25 07:33N 44°48' E 033°29'1 0.4
2015-Feb-25 05:33N 44°49' E 033°29'1 0.9
2015-Feb-25 04:29N 44°50' E 033°28'2 1.4
2015-Feb-25 03:17N 44°51' E 033°28'0 0.0
2015-Feb-24 21:20N 44°51' E 033°28'0 0.0
2015-Feb-24 16:28N 44°51' E 033°28'4 2.2
2015-Feb-24 14:33N 44°47' E 033°29'2 0.2
2015-Feb-24 05:08N 44°49' E 033°29'2 2.3
2015-Feb-24 04:22N 44°51' E 033°29'2 0.4
2015-Feb-24 00:28N 44°52' E 033°27'0 0.0
2015-Feb-23 20:24N 44°52' E 033°27'0 0.0
2015-Feb-23 19:13N 44°52' E 033°27'0 0.0
2015-Feb-23 18:29N 44°52' E 033°27'0 0.0
2015-Feb-23 17:30N 44°52' E 033°27'3 2.7
2015-Feb-23 16:21N 44°49' E 033°29'2 2.5
2015-Feb-23 15:30N 44°47' E 033°27'5 4.8
2015-Feb-23 14:25N 44°42' E 033°28'6 6.8
2015-Feb-23 13:33N 44°37' E 033°33'  
Track history (hours):
 
Tides and Currents Weather Stations Pressure Air Temp Water Temp Dewpoint Dewpoint Depression Visibility Wind Speed Wind Dir Waves Ship Positions

Kalamita

Last reported at 2015-Mar-05 13:30 UTC. Time now 2015-Mar-05 14:34 UTC.
Position N 44°37' E 033°35'.

Length 55 m; draft 4 m.

Type: Fishing. MMSI: 272440000.

Date/timePositionNaut miles runAvg speedWind from/ knotsBaromVisibWave heightAir tempDewpointWater temp
2015-Mar-05 13:30N 44°37' E 033°35'0 0.0
2015-Mar-05 12:33N 44°37' E 033°35'0 0.0
2015-Mar-05 11:14N 44°37' E 033°35'0 0.0
2015-Mar-05 08:23N 44°37' E 033°35'0 0.0
2015-Mar-05 07:07N 44°37' E 033°35'0 0.0
2015-Mar-05 06:33N 44°37' E 033°35'0 0.0
2015-Mar-05 05:34N 44°37' E 033°35'0 0.0
2015-Mar-05 04:07N 44°37' E 033°35'0 0.0
2015-Mar-05 03:25N 44°37' E 033°35'0 0.0
2015-Mar-05 01:29N 44°37' E 033°35'0 0.0
2015-Mar-05 00:33N 44°37' E 033°35'0 0.0
2015-Mar-04 23:33N 44°37' E 033°35'0 0.0
2015-Mar-04 22:33N 44°37' E 033°35'0 0.0
2015-Mar-04 21:33N 44°37' E 033°35'0 0.0
2015-Mar-04 20:32N 44°37' E 033°35'0 0.0
2015-Mar-04 19:24N 44°37' E 033°35'0 0.0
2015-Mar-04 18:32N 44°37' E 033°35'0 0.0
2015-Mar-04 17:33N 44°37' E 033°35'0 0.0
2015-Mar-04 16:30N 44°37' E 033°35'0 0.0
2015-Mar-04 15:34N 44°37' E 033°35'3 3.2
2015-Mar-04 14:33N 44°37' E 033°30'3 2.9
2015-Mar-04 13:33N 44°40' E 033°30'0 0.0
2015-Mar-04 12:33N 44°40' E 033°30'0 0.0
2015-Mar-04 11:33N 44°40' E 033°30'0 0.0
2015-Mar-04 10:33N 44°40' E 033°30'6 5.7
2015-Mar-04 09:33N 44°37' E 033°24'36 7.1
2015-Mar-04 04:31N 44°29' E 034°13'1010.3
2015-Mar-04 03:33N 44°36' E 034°23'9 9.2
2015-Mar-04 02:33N 44°43' E 034°31'10 9.5
2015-Mar-04 01:33N 44°47' E 034°43'1010.1
2015-Mar-04 00:33N 44°48' E 034°57'109 2.6
2015-Mar-02 07:04N 44°40' E 037°30'2 3.6
2015-Mar-02 06:31N 44°39' E 037°33'1 0.9
2015-Mar-02 05:18N 44°40' E 037°33'2 0.2
2015-Mar-01 15:12N 44°39' E 037°36'2 2.9
2015-Mar-01 14:29N 44°40' E 037°33'1 0.9
2015-Mar-01 13:33N 44°40' E 037°34'3 0.4
2015-Mar-01 07:27N 44°40' E 037°31'1 1.2
2015-Mar-01 06:31N 44°39' E 037°32'1 0.0
2015-Feb-28 08:33N 44°40' E 037°31'1 0.3
2015-Feb-28 06:33N 44°39' E 037°31'1 0.5
2015-Feb-28 04:30N 44°40' E 037°30'100 7.7
2015-Feb-27 15:32N 44°47' E 035°09'7 7.7
2015-Feb-27 14:33N 44°48' E 034°59'4 3.6
2015-Feb-27 13:33N 44°47' E 034°54'2 2.4
2015-Feb-27 12:34N 44°47' E 034°51'7 6.7
2015-Feb-27 11:34N 44°45' E 034°41'1 1.3
2015-Feb-27 10:34N 44°46' E 034°40'3 3.0
2015-Feb-27 09:33N 44°45' E 034°36'3 3.3
2015-Feb-27 08:34N 44°44' E 034°32'3 3.2
2015-Feb-27 07:33N 44°42' E 034°29'3 2.8
2015-Feb-27 06:33N 44°43' E 034°32'4 3.8
2015-Feb-27 05:34N 44°45' E 034°36'3 3.2
2015-Feb-27 04:33N 44°47' E 034°40'3 3.1
2015-Feb-27 03:34N 44°48' E 034°44'0 0.0
2015-Feb-27 02:34N 44°48' E 034°44'0 0.0
2015-Feb-27 01:34N 44°48' E 034°44'0 0.0
2015-Feb-27 00:34N 44°48' E 034°44'7 6.9
2015-Feb-26 23:34N 44°43' E 034°38'1111.1
2015-Feb-26 22:34N 44°36' E 034°26'1110.9
2015-Feb-26 21:34N 44°29' E 034°14'38 9.4
2015-Feb-26 17:32N 44°35' E 033°22'1111.3
2015-Feb-26 16:33N 44°46' E 033°24'3 1.7
2015-Feb-26 14:33N 44°48' E 033°29'4 3.2
2015-Feb-26 13:13N 44°44' E 033°29'2 3.2
2015-Feb-26 12:33N 44°41' E 033°29'2 1.7
2015-Feb-26 11:33N 44°43' E 033°29'3 2.9
2015-Feb-26 10:26N 44°46' E 033°28'1 1.1
2015-Feb-26 09:25N 44°47' E 033°27'5 0.5
2015-Feb-26 00:26N 44°51' E 033°28'5 0.6
2015-Feb-25 16:10N 44°47' E 033°30'2 2.0
2015-Feb-25 15:10N 44°48' E 033°29'1 0.2
2015-Feb-25 11:20N 44°48' E 033°28'1 0.7
2015-Feb-25 10:29N 44°47' E 033°28'4 3.0
2015-Feb-25 09:14N 44°51' E 033°26'3 2.8
2015-Feb-25 08:07N 44°49' E 033°29'1 1.4
2015-Feb-25 07:33N 44°48' E 033°29'1 0.4
2015-Feb-25 05:33N 44°49' E 033°29'1 0.9
2015-Feb-25 04:29N 44°50' E 033°28'2 1.4
2015-Feb-25 03:17N 44°51' E 033°28'0 0.0
2015-Feb-24 21:20N 44°51' E 033°28'0 0.0
2015-Feb-24 16:28N 44°51' E 033°28'4 2.2
2015-Feb-24 14:33N 44°47' E 033°29'2 0.2
2015-Feb-24 05:08N 44°49' E 033°29'2 2.3
2015-Feb-24 04:22N 44°51' E 033°29'2 0.4
2015-Feb-24 00:28N 44°52' E 033°27'0 0.0
2015-Feb-23 20:24N 44°52' E 033°27'0 0.0
2015-Feb-23 19:13N 44°52' E 033°27'0 0.0
2015-Feb-23 18:29N 44°52' E 033°27'0 0.0
2015-Feb-23 17:30N 44°52' E 033°27'3 2.7
2015-Feb-23 16:21N 44°49' E 033°29'2 2.5
2015-Feb-23 15:30N 44°47' E 033°27'5 4.8
2015-Feb-23 14:25N 44°42' E 033°28'6 6.8
2015-Feb-23 13:33N 44°37' E 033°33'  

Dump ship's entire track history